Flight Track Log - Related Links

Times and Time Zones

All times are in EDT time to prevent confusion due to time zone crossing. See the AAL1278 flight status page for this flight to view local times or setup timezone preferences in your user account.

Time Position Orientation Groundspeed Altitude Reporting Facility
EDT Latitude Longitude Course Direction KTS MPH feet Rate Location/Type
Mon 19:33:48 33.9344 -118.4444 46° Northeast 201 231 37,000  Level Los Angeles Center
Mon 19:34:49 33.9156 -118.5192 253° West 241 277 4,700 -14,244 Descending Los Angeles Center
Mon 19:35:51 33.8856 -118.5994 246° West 247 284 7,800 2,613 Climbing Los Angeles Center
Mon 19:36:00 34.1226 -118.0882 59° Northeast  Level FlightAware Approximate
Mon 19:36:53 33.8222 -118.5931 175° South 277 319 10,100  Level Los Angeles Center
Mon 19:37:00 34.1856 -117.9623 59° Northeast  Level FlightAware Approximate
Mon 19:38:00 34.2486 -117.8362 59° Northeast  Level FlightAware Approximate
Mon 19:38:08 33.8639 -118.4919 64° Northeast 311 358 13,100  Level Los Angeles Center
Mon 19:39:00 34.3274 -117.7241 46° Northeast  Level FlightAware Approximate
Mon 19:39:09 33.9300 -118.4336 36° Northeast 317 365 14,800  Level Los Angeles Center
Mon 19:40:11 33.9903 -118.3322 54° Northeast 365 420 17,200 2,323 Climbing Los Angeles Center
Mon 19:41:13 34.0511 -118.2261 55° Northeast 378 435 19,600 2,710 Climbing Los Angeles Center
Mon 19:42:15 34.1233 -118.0958 56° Northeast 387 445 22,800 2,565 Climbing Los Angeles Center
Mon 19:43:17 34.1850 -117.9858 56° Northeast 394 453 24,900 1,500 Climbing Los Angeles Center
Mon 19:44:19 34.2369 -117.8972 55° Northeast 400 460 25,900 1,694 Climbing Los Angeles Center
Mon 19:45:21 34.3153 -117.7564 56° Northeast 417 480 28,400 1,500 Climbing Los Angeles Center
Mon 19:46:23 34.3800 -117.6392 56° Northeast 420 483 29,000 774 Climbing Los Angeles Center
Mon 19:47:25 34.4478 -117.5164 56° Northeast 424 488 30,000 1,065 Climbing Los Angeles Center
Mon 19:48:27 34.5131 -117.3997 56° Northeast 422 486 31,200 1,210 Climbing Los Angeles Center
Mon 19:49:29 34.5797 -117.2761 57° Northeast 438 504 32,500 1,597 Climbing Los Angeles Center
Mon 19:50:31 34.6594 -117.1325 56° Northeast 431 496 34,500 1,500 Climbing Los Angeles Center
Mon 19:51:33 34.7239 -117.0128 57° Northeast 428 493 35,600 1,016 Climbing Los Angeles Center
Mon 19:52:35 34.7892 -116.8950 56° Northeast 426 490 36,600 677 Climbing Los Angeles Center
Mon 19:53:37 34.8547 -116.7728 57° Northeast 430 495 37,000 194 Climbing Los Angeles Center
Mon 19:54:39 34.9197 -116.6544 56° Northeast 427 491 37,000  Level Los Angeles Center
Mon 19:55:41 35.0047 -116.5197 52° Northeast 421 484 37,000  Level Los Angeles Center
Mon 19:56:43 35.0867 -116.4189 45° Northeast 418 481 37,000  Level Los Angeles Center
Mon 19:57:45 35.1683 -116.3183 45° Northeast 419 482 37,000  Level Los Angeles Center
Mon 19:58:48 35.2481 -116.2161 46° Northeast 417 480 37,000  Level Los Angeles Center
Mon 19:59:50 35.3297 -116.1139 46° Northeast 419 482 37,000  Level Los Angeles Center
Mon 20:01:04 35.4267 -115.9911 46° Northeast 419 482 37,000  Level Los Angeles Center
Mon 20:02:06 35.5203 -115.8744 45° Northeast 418 481 37,000  Level Los Angeles Center
Mon 20:03:08 35.6006 -115.7717 46° Northeast 416 479 37,000  Level Los Angeles Center
Mon 20:04:10 35.6967 -115.6511 46° Northeast 412 474 37,000  Level Los Angeles Center
Mon 20:05:13 35.7778 -115.5481 46° Northeast 416 479 37,000  Level Los Angeles Center
Mon 20:06:15 35.8564 -115.4458 46° Northeast 413 475 37,000  Level Los Angeles Center
Mon 20:07:17 35.9361 -115.3450 46° Northeast 413 475 37,000  Level Los Angeles Center
Mon 20:08:19 36.0136 -115.2442 46° Northeast 409 471 37,000  Level Los Angeles Center
Mon 20:09:21 36.0942 -115.1097 53° Northeast 413 475 37,000  Level Los Angeles Center
Mon 20:10:23 36.1356 -114.9781 69° East 415 478 37,000  Level Los Angeles Center
Mon 20:11:25 36.1767 -114.8453 69° East 416 479 37,000  Level Los Angeles Center
Mon 20:12:39 36.2169 -114.7117 69° East 416 479 37,000  Level Los Angeles Center
Mon 20:13:42 36.2661 -114.5522 69° East 414 476 37,000  Level Los Angeles Center
Mon 20:14:44 36.3131 -114.3917 70° East 415 478 37,000  Level Los Angeles Center
Mon 20:15:46 36.3542 -114.2561 69° East 420 483 37,000  Level Los Angeles Center
Mon 20:16:48 36.3872 -114.1486 69° East 419 482 37,000  Level Los Angeles Center
Mon 20:17:50 36.4358 -113.9869 69° East 418 481 37,000  Level Los Angeles Center
Mon 20:18:52 36.4764 -113.8519 69° East 418 481 37,000  Level Los Angeles Center
Mon 20:19:54 36.5167 -113.7139 70° East 417 480 37,000  Level Los Angeles Center
Mon 20:20:56 36.5556 -113.5786 70° East 417 480 37,000  Level Los Angeles Center
Mon 20:21:58 36.6039 -113.4156 70° East 420 483 37,000  Level Los Angeles Center
Mon 20:23:00 36.6442 -113.2775 70° East 425 489 37,000  Level Los Angeles Center
Mon 20:24:02 36.6839 -113.1417 70° East 422 486 37,000  Level Los Angeles Center
Mon 20:25:04 36.7233 -113.0058 70° East 420 483 37,000  Level Los Angeles Center
Mon 20:26:06 36.7633 -112.8678 70° East 423 487 37,000  Level Los Angeles Center
Mon 20:27:08 36.8019 -112.7306 71° East 422 486 37,000  Level Los Angeles Center
Mon 20:28:10 36.8492 -112.5647 70° East 424 488 37,000  Level Los Angeles Center
Mon 20:29:12 36.8883 -112.4272 70° East 423 487 37,000  Level Los Angeles Center
Mon 20:30:14 36.9264 -112.2894 71° East 422 486 37,000  Level Los Angeles Center
Mon 20:31:16 36.9656 -112.1511 70° East 424 488 37,000  Level Los Angeles Center
Mon 20:31:49 36.9864 -112.0689 72° East 423 487 37,000  Level Denver Center
Mon 20:32:51 37.0247 -111.9322 71° East 421 484 37,000  Level Denver Center
Mon 20:33:53 37.0628 -111.7936 71° East 422 486 37,000  Level Denver Center
Mon 20:34:55 37.1097 -111.6278 70° East 423 487 37,000  Level Denver Center
Mon 20:35:57 37.1475 -111.4900 71° East 422 486 37,000  Level Denver Center
Mon 20:36:59 37.1839 -111.3519 72° East 420 483 37,000  Level Denver Center
Mon 20:38:00 37.2214 -111.2142 71° East 419 482 37,000  Level Denver Center
Mon 20:39:02 37.2592 -111.0758 71° East 419 482 37,000  Level Denver Center
Mon 20:40:04 37.2950 -110.9375 72° East 418 481 37,000  Level Denver Center
Mon 20:41:06 37.3319 -110.7992 71° East 419 482 37,000  Level Denver Center
Mon 20:42:08 37.3761 -110.6311 72° East 423 487 37,000  Level Denver Center
Mon 20:43:09 37.4125 -110.4922 72° East 419 482 37,000  Level Denver Center
Mon 20:44:11 37.4503 -110.3506 71° East 427 491 37,000  Level Denver Center
Mon 20:45:13 37.4867 -110.2094 72° East 427 491 37,000  Level Denver Center
Mon 20:46:15 37.5242 -110.0617 72° East 428 493 37,000  Level Denver Center
Mon 20:47:17 37.5667 -109.9017 71° East 430 495 37,000  Level Denver Center
Mon 20:48:18 37.6003 -109.7658 73° East 427 491 37,000 244 Level Denver Center
Mon 20:49:20 37.6347 -109.6289 72° East 427 491 37,500 726 Climbing Denver Center
Mon 20:50:22 37.6747 -109.4686 72° East 427 491 38,500 726 Climbing Denver Center
Mon 20:51:24 37.7086 -109.3339 72° East 423 487 39,000 242 Climbing Denver Center
Mon 20:52:26 37.7486 -109.1758 72° East 421 484 39,000  Level Denver Center
Mon 20:53:27 37.7831 -109.0367 73° East 431 496 39,000  Level Denver Center
Mon 20:54:29 37.8275 -108.8742 71° East 438 504 39,000  Level Denver Center
Mon 20:55:31 37.8747 -108.7422 66° East 434 499 39,000  Level Denver Center
Mon 20:56:33 37.9275 -108.5897 66° East 425 489 39,000  Level Denver Center
Mon 20:57:35 37.9728 -108.4592 66° East 423 487 39,000  Level Denver Center
Mon 20:58:36 38.0194 -108.3267 66° East 427 491 39,000  Level Denver Center
Mon 20:59:39 38.0631 -108.1661 71° East 432 497 39,000  Level Denver Center
Mon 21:00:40 38.0944 -108.0044 76° East 437 503 39,000  Level Denver Center
Mon 21:01:42 38.1236 -107.8628 75° East 436 502 39,000  Level Denver Center
Mon 21:02:44 38.1525 -107.7228 75° East 432 497 39,000  Level Denver Center
Mon 21:03:46 38.1856 -107.5561 76° East 437 503 39,000  Level Denver Center
Mon 21:04:48 38.2139 -107.4153 76° East 434 499 39,000  Level Denver Center
Mon 21:05:50 38.2464 -107.2478 76° East 437 503 39,000  Level Denver Center
Mon 21:06:51 38.2731 -107.1122 76° East 438 504 39,000  Level Denver Center
Mon 21:07:53 38.3022 -106.9622 76° East 439 505 39,000  Level Denver Center
Mon 21:08:55 38.3347 -106.7933 76° East 437 503 39,000  Level Denver Center
Mon 21:09:57 38.3653 -106.6317 76° East 437 503 39,000  Level Denver Center
Mon 21:10:59 38.3939 -106.4814 76° East 436 502 39,000  Level Denver Center
Mon 21:12:00 38.4214 -106.3333 77° East 433 498 39,000  Level Denver Center
Mon 21:13:02 38.4492 -106.1844 77° East 433 498 39,000  Level Denver Center
Mon 21:14:04 38.4783 -106.0297 76° East 433 498 39,000  Level Denver Center
Mon 21:15:06 38.5089 -105.8603 77° East 436 502 39,000  Level Denver Center
Mon 21:16:08 38.5344 -105.7208 77° East 434 499 39,000  Level Denver Center
Mon 21:17:10 38.5672 -105.5428 77° East 439 505 39,000  Level Denver Center
Mon 21:18:11 38.5947 -105.3919 77° East 436 502 39,000  Level Denver Center
Mon 21:19:13 38.6208 -105.2414 77° East 433 498 39,000  Level Denver Center
Mon 21:20:15 38.6475 -105.0894 77° East 434 499 39,000  Level Denver Center
Mon 21:21:17 38.6742 -104.9383 77° East 434 499 39,000  Level Denver Center
Mon 21:22:19 38.7003 -104.7867 78° East 435 501 39,000  Level Denver Center
Mon 21:23:21 38.7267 -104.6350 77° East 435 501 39,000  Level Denver Center
Mon 21:24:23 38.7572 -104.4589 77° East 433 498 39,000  Level Denver Center
Mon 21:25:25 38.7833 -104.3083 77° East 431 496 39,000  Level Denver Center
Mon 21:26:27 38.8083 -104.1569 78° East 432 497 39,000  Level Denver Center
Mon 21:27:29 38.8322 -104.0078 78° East 430 495 39,000  Level Denver Center
Mon 21:28:31 38.8578 -103.8517 78° East 438 504 39,000  Level Denver Center
Mon 21:29:33 38.8836 -103.6981 78° East 438 504 39,000  Level Denver Center
Mon 21:30:34 38.9133 -103.5197 78° East 436 502 39,000  Level Denver Center
Mon 21:31:36 38.9369 -103.3669 79° East 435 501 39,000  Level Denver Center
Mon 21:32:38 38.9614 -103.2153 78° East 432 497 39,000  Level Denver Center
Mon 21:33:40 38.9858 -103.0619 78° East 435 501 39,000  Level Denver Center
Mon 21:34:42 39.0094 -102.9072 79° East 438 504 39,000  Level Denver Center
Mon 21:35:44 39.0353 -102.7419 79° East 437 503 39,000  Level Denver Center
Mon 21:36:46 39.0603 -102.5850 78° East 438 504 39,000  Level Denver Center
Mon 21:37:48 39.0819 -102.4383 79° East 435 501 39,000  Level Denver Center
Mon 21:38:50 39.1075 -102.2678 79° East 436 502 39,000  Level Denver Center
Mon 21:39:52 39.1286 -102.1222 79° East 433 498 39,000  Level Denver Center
Mon 21:40:53 39.1544 -101.9525 79° East 433 498 39,000  Level Denver Center
Mon 21:41:55 39.1753 -101.8069 79° East 431 496 39,000  Level Denver Center
Mon 21:42:57 39.1983 -101.6533 79° East 437 503 39,000  Level Denver Center
Mon 21:43:59 39.2217 -101.4811 80° East 439 505 39,000  Level Denver Center
Mon 21:45:01 39.2425 -101.3367 79° East 430 495 39,000  Level Denver Center
Mon 21:46:03 39.2669 -101.1656 79° East 436 502 39,000  Level Denver Center
Mon 21:47:05 39.2869 -101.0189 80° East 435 501 39,000  Level Denver Center
Mon 21:48:07 39.3103 -100.8497 80° East 430 495 39,000  Level Denver Center
Mon 21:49:09 39.3308 -100.7033 80° East 432 497 39,000  Level Denver Center
Mon 21:50:11 39.3536 -100.5333 80° East 432 497 39,000  Level Denver Center
Mon 21:51:13 39.3731 -100.3864 80° East 433 498 39,000  Level Denver Center
Mon 21:52:15 39.3928 -100.2356 80° East 441 507 39,000  Level Denver Center
Mon 21:53:17 39.4147 -100.0617 81° East 440 506 39,000  Level Denver Center
Mon 21:54:19 39.4347 -99.9119 80° East 442 509 39,000  Level Denver Center
Mon 21:55:21 39.4567 -99.7358 81° East 444 511 39,000  Level Denver Center
Mon 21:56:35 39.4794 -99.5608 80° East 438 504 39,000  Level Denver Center
Mon 21:58:00 39.5004 -99.3493 83° East  Level FlightAware Approximate
Mon 21:58:22 39.5136 -99.2783 83° East 441 507 39,000  Level Kansas City Center
Mon 21:58:39 39.5214 -99.2186 80° East 438 504 39,000  Level Denver Center
Mon 22:00:23 39.5514 -98.9731 81° East 435 501 39,000  Level Minneapolis Center
Mon 22:00:43 39.5586 -98.9094 82° East 433 498 39,000  Level Denver Center
Mon 22:01:45 39.5767 -98.7564 81° East 431 496 39,000  Level Denver Center
Mon 22:02:47 39.5956 -98.6022 81° East 432 497 39,000  Level Denver Center
Mon 22:03:49 39.6128 -98.4461 82° East 436 502 39,000  Level Denver Center
Mon 22:04:27 39.6264 -98.3225 82° East 436 502 39,000  Level Minneapolis Center
Mon 22:05:28 39.6450 -98.1667 81° East 438 504 39,000  Level Minneapolis Center
Mon 22:06:29 39.6622 -98.0106 82° East 438 504 39,000  Level Minneapolis Center
Mon 22:07:30 39.6789 -97.8514 82° East 443 510 39,000  Level Minneapolis Center
Mon 22:08:31 39.6967 -97.6922 82° East 446 513 39,000  Level Minneapolis Center
Mon 22:09:32 39.7142 -97.5375 82° East 446 513 39,000  Level Minneapolis Center
Mon 22:10:33 39.7308 -97.3769 82° East 448 516 39,000  Level Minneapolis Center
Mon 22:11:34 39.7475 -97.2156 82° East 450 518 39,000  Level Minneapolis Center
Mon 22:12:40 39.7664 -97.0392 82° East 450 518 39,000  Level Kansas City Center
Mon 22:13:41 39.7861 -96.8556 82° East 450 518 39,000  Level Kansas City Center
Mon 22:14:43 39.8011 -96.6950 83° East 449 517 39,000  Level Kansas City Center
Mon 22:15:44 39.8167 -96.5339 83° East 449 517 39,000  Level Kansas City Center
Mon 22:16:45 39.8328 -96.3733 83° East 448 516 39,000  Level Kansas City Center
Mon 22:17:46 39.8478 -96.2136 83° East 447 514 39,000  Level Kansas City Center
Mon 22:18:48 39.8644 -96.0392 83° East 445 512 39,000  Level Kansas City Center
Mon 22:19:49 39.8789 -95.8839 83° East 449 517 39,000  Level Kansas City Center
Mon 22:20:50 39.8953 -95.7053 83° East 445 512 39,000  Level Kansas City Center
Mon 22:21:52 39.9094 -95.5503 83° East 448 516 39,000  Level Kansas City Center
Mon 22:22:53 39.9231 -95.3961 83° East 447 514 39,000  Level Kansas City Center
Mon 22:23:54 39.9389 -95.2158 83° East 447 514 39,000  Level Kansas City Center
Mon 22:24:55 39.9519 -95.0606 84° East 448 516 39,000  Level Kansas City Center
Mon 22:25:57 39.9656 -94.9056 83° East 448 516 39,000  Level Kansas City Center
Mon 22:26:58 39.9808 -94.7228 84° East 452 520 39,000  Level Kansas City Center
Mon 22:27:59 39.9936 -94.5675 84° East 451 519 39,000  Level Kansas City Center
Mon 22:29:01 40.0075 -94.3867 84° East 449 517 39,000  Level Kansas City Center
Mon 22:30:02 40.0194 -94.2325 84° East 450 518 39,000  Level Kansas City Center
Mon 22:31:03 40.0308 -94.0789 84° East 452 520 39,000  Level Kansas City Center
Mon 22:32:05 40.0428 -93.9150 85° East 458 527 39,000  Level Kansas City Center
Mon 22:33:06 40.0547 -93.7542 84° East 453 521 39,000  Level Kansas City Center
Mon 22:34:07 40.0669 -93.5617 85° East 448 516 39,000  Level Kansas City Center
Mon 22:35:08 40.0792 -93.3997 84° East 452 520 39,000  Level Kansas City Center
Mon 22:36:09 40.0892 -93.2378 85° East 454 522 39,000  Level Kansas City Center
Mon 22:37:11 40.1022 -93.0764 84° East 452 520 39,000  Level Kansas City Center
Mon 22:38:12 40.1139 -92.9006 85° East 454 522 39,000  Level Kansas City Center
Mon 22:39:13 40.1242 -92.7417 85° East 458 527 39,000  Level Kansas City Center
Mon 22:40:14 40.1408 -92.5597 83° East 455 524 39,000  Level Kansas City Center
Mon 22:41:15 40.2000 -92.4211 61° Northeast 450 518 39,000  Level Kansas City Center
Mon 22:42:16 40.2500 -92.2736 66° East 451 519 39,000 -390 Level Kansas City Center
Mon 22:43:18 40.3014 -92.1286 65° Northeast 448 516 38,200 -1,073 Descending Kansas City Center
Mon 22:44:19 40.3517 -91.9894 65° Northeast 432 497 36,800 -1,820 Descending Kansas City Center
Mon 22:45:20 40.4097 -91.8250 65° Northeast 420 483 34,500 -1,869 Descending Kansas City Center
Mon 22:46:21 40.4583 -91.6836 66° East 427 491 33,000 -738 Descending Kansas City Center
Mon 22:47:22 40.5075 -91.5353 66° East 441 507 33,000  Level Kansas City Center
Mon 22:48:23 40.5603 -91.3797 66° East 463 533 33,000  Level Kansas City Center
Mon 22:49:25 40.6144 -91.2247 65° Northeast 469 540 33,000  Level Kansas City Center
Mon 22:50:30 40.6689 -91.0647 66° East 475 547 33,000  Level Chicago Center
Mon 22:51:31 40.7361 -90.8714 65° Northeast 482 555 33,000  Level Chicago Center
Mon 22:52:32 40.7897 -90.7081 67° East 483 556 33,000 -246 Level Chicago Center
Mon 22:53:33 40.8450 -90.5461 66° East 482 555 32,500 -934 Descending Chicago Center
Mon 22:54:34 40.8994 -90.3819 66° East 485 558 31,100 -1,672 Descending Chicago Center
Mon 22:55:35 40.9558 -90.2144 66° East 474 545 29,100 -1,918 Descending Chicago Center
Mon 22:56:36 41.0036 -90.0672 67° East 456 525 27,200 -1,884 Descending Chicago Center
Mon 22:57:36 41.0536 -89.9144 66° East 445 512 25,300 -1,587 Descending Chicago Center
Mon 22:58:37 41.1022 -89.7664 66° East 442 509 24,000 -836 Descending Chicago Center
Mon 22:59:38 41.1494 -89.6208 67° East 434 499 23,600 -1,230 Descending Chicago Center
Mon 23:00:39 41.2036 -89.4831 62° Northeast 421 484 21,500 -1,918 Descending Chicago Center
Mon 23:01:40 41.2569 -89.3506 62° Northeast 407 468 19,700 -1,770 Descending Chicago Center
Mon 23:02:41 41.3083 -89.2236 62° Northeast 392 451 17,900 -1,672 Descending Chicago Center
Mon 23:03:42 41.3542 -89.1033 63° Northeast 383 441 16,300 -1,574 Descending Chicago Center
Mon 23:04:43 41.4042 -88.9803 62° Northeast 381 438 14,700 -1,770 Descending Chicago Center
Mon 23:05:44 41.4617 -88.8350 62° Northeast 371 427 12,700 -1,785 Descending Chicago Center
Mon 23:06:44 41.5089 -88.7144 62° Northeast 368 423 11,100 -843 Descending Chicago Center
Mon 23:07:45 41.5556 -88.5981 62° Northeast 360 414 11,000 -49 Descending Chicago Center
Mon 23:08:46 41.6125 -88.4894 55° Northeast 357 411 11,000  Level Chicago Center
Mon 23:09:47 41.6783 -88.3894 49° Northeast 356 410 11,000 -49 Level Chicago Center
Mon 23:10:48 41.7419 -88.2881 50° Northeast 356 410 10,900 -541 Descending Chicago Center
Mon 23:11:49 41.8083 -88.2161 39° Northeast 316 364 9,900 -1,328 Descending Chicago Center
Mon 23:12:50 41.8908 -88.1914 13° North 303 349 8,200 -1,426 Descending Chicago Center
Mon 23:13:51 41.9717 -88.1667 13° North 299 344 7,000 -934 Descending Chicago Center
Mon 23:14:52 42.0431 -88.1478 11° North 271 312 6,300 -689 Descending Chicago Center

Login

Don't have an account? Register now (free) for customized features, flight alerts, and more!